sensor_id;sensor_type;location;lat;lon;timestamp;P1;durP1;ratioP1;P2;durP2;ratioP2
24102;SDS011;12278;53.058;9.028;2022-07-29T03:30:52;5.68;;;2.22;;
24102;SDS011;12278;53.058;9.028;2022-07-29T03:38:54;3.55;;;1.90;;
24102;SDS011;12278;53.058;9.028;2022-07-29T06:15:42;3.78;;;2.70;;
24102;SDS011;12278;53.058;9.028;2022-07-29T06:19:43;6.53;;;2.75;;
24102;SDS011;12278;53.058;9.028;2022-07-29T06:23:44;4.55;;;2.55;;
24102;SDS011;12278;53.058;9.028;2022-07-29T06:27:45;5.93;;;2.72;;
24102;SDS011;12278;53.058;9.028;2022-07-29T06:31:46;5.30;;;2.65;;
24102;SDS011;12278;53.058;9.028;2022-07-29T06:35:46;7.93;;;2.75;;
24102;SDS011;12278;53.058;9.028;2022-07-29T06:39:48;10.07;;;3.20;;
24102;SDS011;12278;53.058;9.028;2022-07-29T06:44:09;7.95;;;2.80;;
24102;SDS011;12278;53.058;9.028;2022-07-29T06:48:10;4.15;;;2.40;;
24102;SDS011;12278;53.058;9.028;2022-07-29T06:52:11;5.13;;;2.37;;
24102;SDS011;12278;53.058;9.028;2022-07-29T06:56:11;5.85;;;2.50;;
24102;SDS011;12278;53.058;9.028;2022-07-29T07:00:13;5.88;;;2.90;;
24102;SDS011;12278;53.058;9.028;2022-07-29T07:04:18;3.53;;;2.10;;
24102;SDS011;12278;53.058;9.028;2022-07-29T07:08:19;3.10;;;2.50;;
24102;SDS011;12278;53.058;9.028;2022-07-29T07:12:21;3.60;;;2.63;;
24102;SDS011;12278;53.058;9.028;2022-07-29T07:16:22;4.13;;;2.45;;
24102;SDS011;12278;53.058;9.028;2022-07-29T07:20:24;4.68;;;2.78;;
24102;SDS011;12278;53.058;9.028;2022-07-29T07:24:25;3.40;;;2.33;;
24102;SDS011;12278;53.058;9.028;2022-07-29T07:28:26;5.53;;;2.42;;
24102;SDS011;12278;53.058;9.028;2022-07-29T07:32:27;3.28;;;2.30;;
24102;SDS011;12278;53.058;9.028;2022-07-29T07:36:27;4.10;;;2.90;;
24102;SDS011;12278;53.058;9.028;2022-07-29T07:40:28;5.05;;;2.83;;
24102;SDS011;12278;53.058;9.028;2022-07-29T07:44:30;5.28;;;2.50;;
24102;SDS011;12278;53.058;9.028;2022-07-29T07:48:31;2.60;;;2.35;;
24102;SDS011;12278;53.058;9.028;2022-07-29T07:52:37;3.42;;;2.45;;
24102;SDS011;12278;53.058;9.028;2022-07-29T07:56:55;3.03;;;2.53;;
24102;SDS011;12278;53.058;9.028;2022-07-29T08:00:55;3.80;;;3.08;;
24102;SDS011;12278;53.058;9.028;2022-07-29T08:04:56;3.55;;;2.40;;
24102;SDS011;12278;53.058;9.028;2022-07-29T08:08:57;4.55;;;2.35;;
24102;SDS011;12278;53.058;9.028;2022-07-29T08:12:58;7.72;;;2.60;;
24102;SDS011;12278;53.058;9.028;2022-07-29T08:17:02;2.58;;;2.17;;
24102;SDS011;12278;53.058;9.028;2022-07-29T08:21:03;2.90;;;2.63;;
24102;SDS011;12278;53.058;9.028;2022-07-29T08:25:04;5.75;;;2.50;;
24102;SDS011;12278;53.058;9.028;2022-07-29T08:29:05;4.70;;;2.85;;
24102;SDS011;12278;53.058;9.028;2022-07-29T08:33:06;5.75;;;2.83;;
24102;SDS011;12278;53.058;9.028;2022-07-29T08:37:07;2.88;;;2.20;;
24102;SDS011;12278;53.058;9.028;2022-07-29T08:41:08;5.80;;;2.80;;
24102;SDS011;12278;53.058;9.028;2022-07-29T08:45:09;3.33;;;2.20;;
24102;SDS011;12278;53.058;9.028;2022-07-29T08:49:10;3.60;;;2.40;;
24102;SDS011;12278;53.058;9.028;2022-07-29T08:53:12;3.53;;;2.50;;
24102;SDS011;12278;53.058;9.028;2022-07-29T08:57:15;3.10;;;2.30;;
24102;SDS011;12278;53.058;9.028;2022-07-29T09:01:21;3.75;;;2.50;;
24102;SDS011;12278;53.058;9.028;2022-07-29T09:05:25;4.82;;;2.55;;
24102;SDS011;12278;53.058;9.028;2022-07-29T09:09:27;3.97;;;2.38;;
24102;SDS011;12278;53.058;9.028;2022-07-29T09:13:28;3.45;;;1.90;;
24102;SDS011;12278;53.058;9.028;2022-07-29T09:17:48;3.00;;;1.92;;
24102;SDS011;12278;53.058;9.028;2022-07-29T09:21:49;3.30;;;2.38;;
24102;SDS011;12278;53.058;9.028;2022-07-29T09:26:02;2.97;;;1.90;;
24102;SDS011;12278;53.058;9.028;2022-07-29T09:30:06;6.43;;;2.63;;
24102;SDS011;12278;53.058;9.028;2022-07-29T09:34:11;4.13;;;2.03;;
24102;SDS011;12278;53.058;9.028;2022-07-29T09:38:15;2.47;;;2.05;;
24102;SDS011;12278;53.058;9.028;2022-07-29T09:42:16;6.50;;;2.08;;
24102;SDS011;12278;53.058;9.028;2022-07-29T09:46:29;4.90;;;2.13;;
24102;SDS011;12278;53.058;9.028;2022-07-29T09:50:37;5.95;;;2.10;;
24102;SDS011;12278;53.058;9.028;2022-07-29T09:54:40;3.53;;;2.50;;
24102;SDS011;12278;53.058;9.028;2022-07-29T09:58:41;4.30;;;2.25;;
24102;SDS011;12278;53.058;9.028;2022-07-29T10:02:42;3.33;;;2.05;;
24102;SDS011;12278;53.058;9.028;2022-07-29T10:06:55;5.22;;;2.55;;
24102;SDS011;12278;53.058;9.028;2022-07-29T10:11:13;2.78;;;1.95;;
24102;SDS011;12278;53.058;9.028;2022-07-29T10:15:16;5.88;;;1.85;;
24102;SDS011;12278;53.058;9.028;2022-07-29T10:19:17;5.10;;;2.10;;
24102;SDS011;12278;53.058;9.028;2022-07-29T10:23:18;4.95;;;2.30;;
24102;SDS011;12278;53.058;9.028;2022-07-29T10:27:20;3.78;;;1.48;;
24102;SDS011;12278;53.058;9.028;2022-07-29T10:31:23;7.28;;;2.50;;
24102;SDS011;12278;53.058;9.028;2022-07-29T10:40:03;3.53;;;1.65;;
24102;SDS011;12278;53.058;9.028;2022-07-29T10:44:48;1.98;;;1.52;;
24102;SDS011;12278;53.058;9.028;2022-07-29T10:53:09;3.67;;;1.80;;
24102;SDS011;12278;53.058;9.028;2022-07-29T11:01:27;5.80;;;2.30;;
24102;SDS011;12278;53.058;9.028;2022-07-29T11:05:30;3.60;;;1.67;;
24102;SDS011;12278;53.058;9.028;2022-07-29T11:14:13;2.25;;;1.80;;
24102;SDS011;12278;53.058;9.028;2022-07-29T11:18:13;2.13;;;1.90;;
24102;SDS011;12278;53.058;9.028;2022-07-29T11:22:33;5.75;;;1.90;;
24102;SDS011;12278;53.058;9.028;2022-07-29T11:26:35;4.05;;;1.77;;
24102;SDS011;12278;53.058;9.028;2022-07-29T11:30:47;2.80;;;1.70;;
24102;SDS011;12278;53.058;9.028;2022-07-29T11:39:27;4.57;;;1.50;;
24102;SDS011;12278;53.058;9.028;2022-07-29T11:47:53;1.83;;;1.65;;
24102;SDS011;12278;53.058;9.028;2022-07-29T11:51:58;2.90;;;1.90;;
24102;SDS011;12278;53.058;9.028;2022-07-29T11:56:03;1.95;;;1.35;;
24102;SDS011;12278;53.058;9.028;2022-07-29T12:00:08;3.10;;;1.90;;
24102;SDS011;12278;53.058;9.028;2022-07-29T12:04:10;2.95;;;1.77;;
24102;SDS011;12278;53.058;9.028;2022-07-29T12:12:15;6.90;;;1.88;;
24102;SDS011;12278;53.058;9.028;2022-07-29T12:16:17;2.67;;;1.42;;
24102;SDS011;12278;53.058;9.028;2022-07-29T12:20:26;3.95;;;1.80;;
24102;SDS011;12278;53.058;9.028;2022-07-29T12:24:42;3.75;;;1.80;;
24102;SDS011;12278;53.058;9.028;2022-07-29T12:28:44;2.22;;;1.65;;
24102;SDS011;12278;53.058;9.028;2022-07-29T12:32:46;4.30;;;1.42;;
24102;SDS011;12278;53.058;9.028;2022-07-29T12:36:48;3.70;;;1.73;;
24102;SDS011;12278;53.058;9.028;2022-07-29T12:40:51;4.15;;;2.00;;
24102;SDS011;12278;53.058;9.028;2022-07-29T12:44:53;3.10;;;1.65;;
24102;SDS011;12278;53.058;9.028;2022-07-29T12:48:54;5.13;;;1.95;;
24102;SDS011;12278;53.058;9.028;2022-07-29T12:53:07;2.72;;;2.03;;
24102;SDS011;12278;53.058;9.028;2022-07-29T12:57:11;3.45;;;1.90;;
24102;SDS011;12278;53.058;9.028;2022-07-29T13:01:12;2.60;;;1.52;;
24102;SDS011;12278;53.058;9.028;2022-07-29T13:05:19;4.50;;;2.05;;
24102;SDS011;12278;53.058;9.028;2022-07-29T13:09:20;2.83;;;1.85;;
24102;SDS011;12278;53.058;9.028;2022-07-29T13:13:24;3.30;;;1.95;;
24102;SDS011;12278;53.058;9.028;2022-07-29T13:17:25;5.68;;;1.63;;
24102;SDS011;12278;53.058;9.028;2022-07-29T13:21:29;3.20;;;1.60;;
24102;SDS011;12278;53.058;9.028;2022-07-29T13:25:30;5.75;;;2.20;;
24102;SDS011;12278;53.058;9.028;2022-07-29T13:29:32;1.95;;;1.40;;
24102;SDS011;12278;53.058;9.028;2022-07-29T13:33:33;3.03;;;2.03;;
24102;SDS011;12278;53.058;9.028;2022-07-29T13:37:34;4.03;;;1.88;;
24102;SDS011;12278;53.058;9.028;2022-07-29T13:41:38;4.82;;;1.60;;
24102;SDS011;12278;53.058;9.028;2022-07-29T13:45:39;4.38;;;1.83;;
24102;SDS011;12278;53.058;9.028;2022-07-29T13:49:39;3.80;;;1.85;;
24102;SDS011;12278;53.058;9.028;2022-07-29T13:53:40;7.95;;;1.83;;
24102;SDS011;12278;53.058;9.028;2022-07-29T13:57:41;3.38;;;1.77;;
24102;SDS011;12278;53.058;9.028;2022-07-29T14:01:42;3.30;;;1.75;;
24102;SDS011;12278;53.058;9.028;2022-07-29T14:05:43;3.75;;;2.08;;
24102;SDS011;12278;53.058;9.028;2022-07-29T14:09:44;3.45;;;1.98;;
24102;SDS011;12278;53.058;9.028;2022-07-29T14:13:45;3.60;;;1.90;;
24102;SDS011;12278;53.058;9.028;2022-07-29T14:17:46;2.33;;;1.33;;
24102;SDS011;12278;53.058;9.028;2022-07-29T14:21:47;2.53;;;1.90;;
24102;SDS011;12278;53.058;9.028;2022-07-29T14:25:48;2.53;;;1.80;;
24102;SDS011;12278;53.058;9.028;2022-07-29T14:29:48;2.85;;;1.70;;
24102;SDS011;12278;53.058;9.028;2022-07-29T14:33:49;2.65;;;1.92;;
24102;SDS011;12278;53.058;9.028;2022-07-29T14:37:50;3.20;;;1.67;;
24102;SDS011;12278;53.058;9.028;2022-07-29T14:41:51;3.95;;;1.70;;
24102;SDS011;12278;53.058;9.028;2022-07-29T14:45:52;2.00;;;1.80;;
24102;SDS011;12278;53.058;9.028;2022-07-29T14:49:52;3.67;;;1.92;;
24102;SDS011;12278;53.058;9.028;2022-07-29T14:53:53;3.70;;;1.85;;
24102;SDS011;12278;53.058;9.028;2022-07-29T14:57:56;2.75;;;1.73;;
24102;SDS011;12278;53.058;9.028;2022-07-29T15:01:57;4.15;;;1.90;;
24102;SDS011;12278;53.058;9.028;2022-07-29T15:05:58;5.10;;;2.10;;
24102;SDS011;12278;53.058;9.028;2022-07-29T15:09:58;5.38;;;1.80;;
24102;SDS011;12278;53.058;9.028;2022-07-29T15:13:59;3.90;;;1.88;;
24102;SDS011;12278;53.058;9.028;2022-07-29T15:18:00;4.70;;;1.52;;
24102;SDS011;12278;53.058;9.028;2022-07-29T15:22:01;2.28;;;1.65;;
24102;SDS011;12278;53.058;9.028;2022-07-29T15:26:03;6.10;;;2.30;;
24102;SDS011;12278;53.058;9.028;2022-07-29T15:30:04;2.88;;;1.80;;
24102;SDS011;12278;53.058;9.028;2022-07-29T15:34:06;2.10;;;1.65;;
24102;SDS011;12278;53.058;9.028;2022-07-29T15:38:07;3.97;;;1.90;;
24102;SDS011;12278;53.058;9.028;2022-07-29T15:42:08;3.80;;;2.03;;
24102;SDS011;12278;53.058;9.028;2022-07-29T15:46:12;6.45;;;2.10;;
24102;SDS011;12278;53.058;9.028;2022-07-29T15:50:34;3.75;;;1.80;;
24102;SDS011;12278;53.058;9.028;2022-07-29T15:54:35;3.03;;;1.60;;
24102;SDS011;12278;53.058;9.028;2022-07-29T15:58:40;2.80;;;1.42;;
24102;SDS011;12278;53.058;9.028;2022-07-29T16:06:41;4.35;;;1.92;;
24102;SDS011;12278;53.058;9.028;2022-07-29T16:10:44;2.85;;;2.10;;
24102;SDS011;12278;53.058;9.028;2022-07-29T16:14:44;6.47;;;1.88;;
24102;SDS011;12278;53.058;9.028;2022-07-29T16:18:49;3.43;;;1.70;;
24102;SDS011;12278;53.058;9.028;2022-07-29T16:22:50;1.80;;;1.67;;
24102;SDS011;12278;53.058;9.028;2022-07-29T16:26:51;2.85;;;1.52;;
24102;SDS011;12278;53.058;9.028;2022-07-29T16:30:52;4.25;;;1.90;;
24102;SDS011;12278;53.058;9.028;2022-07-29T16:34:53;3.65;;;1.92;;
24102;SDS011;12278;53.058;9.028;2022-07-29T16:42:54;2.20;;;2.00;;
24102;SDS011;12278;53.058;9.028;2022-07-29T16:46:55;2.83;;;1.75;;
24102;SDS011;12278;53.058;9.028;2022-07-29T16:50:56;2.53;;;1.83;;
24102;SDS011;12278;53.058;9.028;2022-07-29T16:54:56;3.55;;;2.10;;
24102;SDS011;12278;53.058;9.028;2022-07-29T16:58:57;2.28;;;2.03;;
24102;SDS011;12278;53.058;9.028;2022-07-29T17:02:58;5.53;;;2.10;;
24102;SDS011;12278;53.058;9.028;2022-07-29T17:06:59;4.18;;;2.25;;
24102;SDS011;12278;53.058;9.028;2022-07-29T17:11:01;2.72;;;2.03;;
24102;SDS011;12278;53.058;9.028;2022-07-29T17:15:03;4.07;;;2.05;;
24102;SDS011;12278;53.058;9.028;2022-07-29T17:19:06;3.15;;;1.90;;
24102;SDS011;12278;53.058;9.028;2022-07-29T17:23:07;4.50;;;2.17;;
24102;SDS011;12278;53.058;9.028;2022-07-29T17:27:08;5.50;;;2.40;;
24102;SDS011;12278;53.058;9.028;2022-07-29T17:31:09;4.53;;;2.47;;
24102;SDS011;12278;53.058;9.028;2022-07-29T17:35:10;2.90;;;2.00;;
24102;SDS011;12278;53.058;9.028;2022-07-29T17:39:30;8.93;;;2.83;;
24102;SDS011;12278;53.058;9.028;2022-07-29T17:43:32;3.33;;;2.33;;
24102;SDS011;12278;53.058;9.028;2022-07-29T17:47:33;4.75;;;2.95;;
24102;SDS011;12278;53.058;9.028;2022-07-29T17:51:36;2.40;;;2.20;;
24102;SDS011;12278;53.058;9.028;2022-07-29T17:55:37;4.90;;;2.78;;
24102;SDS011;12278;53.058;9.028;2022-07-29T17:59:38;5.35;;;2.40;;
24102;SDS011;12278;53.058;9.028;2022-07-29T18:03:39;5.10;;;2.63;;
24102;SDS011;12278;53.058;9.028;2022-07-29T18:07:40;3.42;;;2.42;;
24102;SDS011;12278;53.058;9.028;2022-07-29T18:11:41;5.88;;;2.38;;
24102;SDS011;12278;53.058;9.028;2022-07-29T18:15:42;4.50;;;2.50;;
24102;SDS011;12278;53.058;9.028;2022-07-29T18:19:44;5.60;;;2.10;;
24102;SDS011;12278;53.058;9.028;2022-07-29T18:23:46;2.85;;;2.17;;
24102;SDS011;12278;53.058;9.028;2022-07-29T18:27:49;7.53;;;2.67;;
24102;SDS011;12278;53.058;9.028;2022-07-29T18:31:50;3.10;;;2.30;;
24102;SDS011;12278;53.058;9.028;2022-07-29T18:35:51;4.72;;;2.42;;
24102;SDS011;12278;53.058;9.028;2022-07-29T18:39:53;6.28;;;2.15;;
24102;SDS011;12278;53.058;9.028;2022-07-29T18:43:54;8.90;;;2.47;;
24102;SDS011;12278;53.058;9.028;2022-07-29T18:47:55;4.35;;;2.33;;
24102;SDS011;12278;53.058;9.028;2022-07-29T18:51:56;2.42;;;2.17;;
24102;SDS011;12278;53.058;9.028;2022-07-29T18:55:56;4.38;;;2.58;;
24102;SDS011;12278;53.058;9.028;2022-07-29T18:59:57;3.55;;;2.50;;
24102;SDS011;12278;53.058;9.028;2022-07-29T19:04:00;4.45;;;2.40;;
24102;SDS011;12278;53.058;9.028;2022-07-29T19:08:01;5.90;;;2.38;;
24102;SDS011;12278;53.058;9.028;2022-07-29T19:12:02;2.25;;;2.05;;
24102;SDS011;12278;53.058;9.028;2022-07-29T19:16:04;3.35;;;2.55;;
24102;SDS011;12278;53.058;9.028;2022-07-29T19:20:06;4.20;;;2.78;;
24102;SDS011;12278;53.058;9.028;2022-07-29T19:24:08;3.90;;;2.70;;
24102;SDS011;12278;53.058;9.028;2022-07-29T19:28:09;3.42;;;2.60;;
24102;SDS011;12278;53.058;9.028;2022-07-29T19:32:10;3.72;;;2.67;;
24102;SDS011;12278;53.058;9.028;2022-07-29T19:36:12;5.70;;;3.38;;
24102;SDS011;12278;53.058;9.028;2022-07-29T19:40:14;2.83;;;2.63;;
24102;SDS011;12278;53.058;9.028;2022-07-29T19:44:15;7.82;;;3.00;;
24102;SDS011;12278;53.058;9.028;2022-07-29T19:48:16;4.60;;;2.50;;
24102;SDS011;12278;53.058;9.028;2022-07-29T19:52:17;3.60;;;2.63;;
24102;SDS011;12278;53.058;9.028;2022-07-29T19:56:18;3.47;;;2.28;;
24102;SDS011;12278;53.058;9.028;2022-07-29T20:00:19;5.50;;;2.30;;
24102;SDS011;12278;53.058;9.028;2022-07-29T20:04:22;7.05;;;3.05;;
24102;SDS011;12278;53.058;9.028;2022-07-29T20:08:23;3.72;;;2.60;;
24102;SDS011;12278;53.058;9.028;2022-07-29T20:12:24;5.50;;;3.05;;
24102;SDS011;12278;53.058;9.028;2022-07-29T20:16:25;6.40;;;3.05;;
24102;SDS011;12278;53.058;9.028;2022-07-29T20:20:27;7.72;;;3.10;;
24102;SDS011;12278;53.058;9.028;2022-07-29T20:24:28;4.97;;;2.78;;
24102;SDS011;12278;53.058;9.028;2022-07-29T20:28:29;5.45;;;3.20;;
24102;SDS011;12278;53.058;9.028;2022-07-29T20:32:30;4.50;;;2.78;;
24102;SDS011;12278;53.058;9.028;2022-07-29T20:36:31;4.53;;;2.50;;
24102;SDS011;12278;53.058;9.028;2022-07-29T20:40:32;3.50;;;2.65;;
24102;SDS011;12278;53.058;9.028;2022-07-29T20:44:34;6.88;;;3.10;;
24102;SDS011;12278;53.058;9.028;2022-07-29T20:48:35;3.90;;;3.28;;
24102;SDS011;12278;53.058;9.028;2022-07-29T20:52:38;4.03;;;3.38;;
24102;SDS011;12278;53.058;9.028;2022-07-29T20:56:43;6.88;;;4.90;;
24102;SDS011;12278;53.058;9.028;2022-07-29T21:00:44;7.82;;;5.30;;
24102;SDS011;12278;53.058;9.028;2022-07-29T21:04:46;6.05;;;4.38;;
24102;SDS011;12278;53.058;9.028;2022-07-29T21:08:46;5.45;;;3.63;;
24102;SDS011;12278;53.058;9.028;2022-07-29T21:12:47;4.57;;;3.50;;
24102;SDS011;12278;53.058;9.028;2022-07-29T21:16:48;7.35;;;3.28;;
24102;SDS011;12278;53.058;9.028;2022-07-29T21:20:49;4.60;;;3.80;;
24102;SDS011;12278;53.058;9.028;2022-07-29T21:24:50;4.82;;;3.28;;
24102;SDS011;12278;53.058;9.028;2022-07-29T21:28:51;7.57;;;3.65;;
24102;SDS011;12278;53.058;9.028;2022-07-29T21:32:51;6.15;;;4.13;;
24102;SDS011;12278;53.058;9.028;2022-07-29T21:36:52;5.20;;;3.40;;
24102;SDS011;12278;53.058;9.028;2022-07-29T21:40:53;4.65;;;3.58;;
24102;SDS011;12278;53.058;9.028;2022-07-29T21:44:55;4.80;;;3.38;;
24102;SDS011;12278;53.058;9.028;2022-07-29T21:48:56;4.85;;;3.33;;
24102;SDS011;12278;53.058;9.028;2022-07-29T21:52:57;6.00;;;4.13;;
24102;SDS011;12278;53.058;9.028;2022-07-29T21:56:57;4.50;;;3.83;;
24102;SDS011;12278;53.058;9.028;2022-07-29T22:00:58;3.75;;;3.42;;
24102;SDS011;12278;53.058;9.028;2022-07-29T22:04:59;6.65;;;4.38;;
24102;SDS011;12278;53.058;9.028;2022-07-29T22:09:00;5.68;;;4.20;;
24102;SDS011;12278;53.058;9.028;2022-07-29T22:13:01;5.63;;;4.05;;
24102;SDS011;12278;53.058;9.028;2022-07-29T22:17:03;4.30;;;3.90;;
24102;SDS011;12278;53.058;9.028;2022-07-29T22:21:04;7.15;;;3.97;;
24102;SDS011;12278;53.058;9.028;2022-07-29T22:25:05;6.03;;;4.00;;
24102;SDS011;12278;53.058;9.028;2022-07-29T22:29:06;6.82;;;3.85;;
24102;SDS011;12278;53.058;9.028;2022-07-29T22:33:08;4.80;;;3.83;;
24102;SDS011;12278;53.058;9.028;2022-07-29T22:37:10;3.75;;;3.45;;
24102;SDS011;12278;53.058;9.028;2022-07-29T22:41:11;4.97;;;4.30;;
24102;SDS011;12278;53.058;9.028;2022-07-29T22:45:12;4.78;;;4.25;;
24102;SDS011;12278;53.058;9.028;2022-07-29T22:49:13;4.25;;;3.83;;
24102;SDS011;12278;53.058;9.028;2022-07-29T22:53:14;5.18;;;4.47;;
24102;SDS011;12278;53.058;9.028;2022-07-29T22:57:15;5.28;;;3.95;;
24102;SDS011;12278;53.058;9.028;2022-07-29T23:01:16;4.53;;;4.13;;
24102;SDS011;12278;53.058;9.028;2022-07-29T23:05:17;6.57;;;4.22;;
24102;SDS011;12278;53.058;9.028;2022-07-29T23:09:18;4.90;;;4.03;;
24102;SDS011;12278;53.058;9.028;2022-07-29T23:13:19;4.57;;;4.18;;
24102;SDS011;12278;53.058;9.028;2022-07-29T23:17:19;4.18;;;3.78;;
24102;SDS011;12278;53.058;9.028;2022-07-29T23:21:20;8.13;;;4.00;;
24102;SDS011;12278;53.058;9.028;2022-07-29T23:25:22;6.43;;;3.90;;
24102;SDS011;12278;53.058;9.028;2022-07-29T23:29:23;6.80;;;3.92;;
24102;SDS011;12278;53.058;9.028;2022-07-29T23:33:24;7.78;;;4.50;;
24102;SDS011;12278;53.058;9.028;2022-07-29T23:37:25;4.63;;;3.50;;
24102;SDS011;12278;53.058;9.028;2022-07-29T23:41:29;4.47;;;4.07;;
24102;SDS011;12278;53.058;9.028;2022-07-29T23:45:30;8.63;;;4.07;;
24102;SDS011;12278;53.058;9.028;2022-07-29T23:49:31;5.95;;;3.88;;
24102;SDS011;12278;53.058;9.028;2022-07-29T23:53:35;4.70;;;3.97;;
24102;SDS011;12278;53.058;9.028;2022-07-29T23:57:39;3.75;;;3.33;;
